sensor_id;sensor_type;location;lat;lon;timestamp;pressure;altitude;pressure_sealevel;temperature;humidity
43681;BME280;29281;50.356;30.894;2023-06-04T00:00:55;100919.97;;;11.38;57.52
43681;BME280;29281;50.356;30.894;2023-06-04T00:02:01;100913.97;;;11.35;57.62
43681;BME280;29281;50.356;30.894;2023-06-04T00:03:05;100919.29;;;11.35;57.44
43681;BME280;29281;50.356;30.894;2023-06-04T00:04:10;100916.28;;;11.41;57.35
43681;BME280;29281;50.356;30.894;2023-06-04T00:05:19;100913.91;;;11.50;57.13
43681;BME280;29281;50.356;30.894;2023-06-04T00:06:22;100921.71;;;11.53;56.86
43681;BME280;29281;50.356;30.894;2023-06-04T00:07:26;100924.28;;;11.55;56.75
43681;BME280;29281;50.356;30.894;2023-06-04T00:08:29;100926.94;;;11.55;56.75
43681;BME280;29281;50.356;30.894;2023-06-04T00:09:35;100923.16;;;11.59;56.84
43681;BME280;29281;50.356;30.894;2023-06-04T00:10:41;100922.94;;;11.62;56.98
43681;BME280;29281;50.356;30.894;2023-06-04T00:11:45;100925.91;;;11.57;57.49
43681;BME280;29281;50.356;30.894;2023-06-04T00:12:52;100917.44;;;11.65;57.11
43681;BME280;29281;50.356;30.894;2023-06-04T00:13:57;100917.17;;;11.70;56.99
43681;BME280;29281;50.356;30.894;2023-06-04T00:15:01;100921.73;;;11.68;57.16
43681;BME280;29281;50.356;30.894;2023-06-04T00:16:05;100913.25;;;11.61;58.05
43681;BME280;29281;50.356;30.894;2023-06-04T00:17:09;100914.23;;;11.60;57.69
43681;BME280;29281;50.356;30.894;2023-06-04T00:18:13;100912.30;;;11.62;57.60
43681;BME280;29281;50.356;30.894;2023-06-04T00:19:17;100916.77;;;11.61;57.77
43681;BME280;29281;50.356;30.894;2023-06-04T00:20:20;100913.64;;;11.55;57.82
43681;BME280;29281;50.356;30.894;2023-06-04T00:21:24;100904.53;;;11.59;57.97
43681;BME280;29281;50.356;30.894;2023-06-04T00:22:27;100914.31;;;11.58;57.92
43681;BME280;29281;50.356;30.894;2023-06-04T00:23:30;100916.39;;;11.53;58.29
43681;BME280;29281;50.356;30.894;2023-06-04T00:24:36;100916.95;;;11.44;58.47
43681;BME280;29281;50.356;30.894;2023-06-04T00:25:40;100907.91;;;11.47;59.18
43681;BME280;29281;50.356;30.894;2023-06-04T00:26:42;100908.41;;;11.53;59.18
43681;BME280;29281;50.356;30.894;2023-06-04T00:27:47;100911.16;;;11.52;59.03
43681;BME280;29281;50.356;30.894;2023-06-04T00:28:56;100915.71;;;11.50;59.32
43681;BME280;29281;50.356;30.894;2023-06-04T00:30:00;100916.55;;;11.36;59.10
43681;BME280;29281;50.356;30.894;2023-06-04T00:31:06;100911.28;;;11.20;60.02
43681;BME280;29281;50.356;30.894;2023-06-04T00:32:11;100912.61;;;11.13;60.15
43681;BME280;29281;50.356;30.894;2023-06-04T00:33:14;100909.35;;;11.08;60.23
43681;BME280;29281;50.356;30.894;2023-06-04T00:34:18;100906.61;;;11.10;60.31
43681;BME280;29281;50.356;30.894;2023-06-04T00:35:25;100910.80;;;11.14;60.38
43681;BME280;29281;50.356;30.894;2023-06-04T00:36:29;100903.48;;;11.17;60.13
43681;BME280;29281;50.356;30.894;2023-06-04T00:37:33;100908.53;;;11.22;61.06
43681;BME280;29281;50.356;30.894;2023-06-04T00:38:39;100905.88;;;11.22;60.61
43681;BME280;29281;50.356;30.894;2023-06-04T00:39:43;100912.73;;;11.26;60.05
43681;BME280;29281;50.356;30.894;2023-06-04T00:40:48;100913.67;;;11.25;60.21
43681;BME280;29281;50.356;30.894;2023-06-04T00:41:55;100915.09;;;11.31;59.35
43681;BME280;29281;50.356;30.894;2023-06-04T00:42:59;100915.00;;;11.32;59.13
43681;BME280;29281;50.356;30.894;2023-06-04T00:44:02;100909.78;;;11.31;60.53
43681;BME280;29281;50.356;30.894;2023-06-04T00:45:08;100909.48;;;11.21;60.83
43681;BME280;29281;50.356;30.894;2023-06-04T00:46:14;100906.47;;;11.27;60.24
43681;BME280;29281;50.356;30.894;2023-06-04T00:47:21;100908.19;;;11.28;60.03
43681;BME280;29281;50.356;30.894;2023-06-04T00:48:25;100912.55;;;11.29;59.90
43681;BME280;29281;50.356;30.894;2023-06-04T00:49:31;100907.41;;;11.26;59.75
43681;BME280;29281;50.356;30.894;2023-06-04T00:50:34;100907.85;;;11.18;59.86
43681;BME280;29281;50.356;30.894;2023-06-04T00:51:39;100906.22;;;11.16;60.22
43681;BME280;29281;50.356;30.894;2023-06-04T00:52:43;100908.32;;;11.11;60.51
43681;BME280;29281;50.356;30.894;2023-06-04T00:53:47;100909.70;;;11.02;60.69
43681;BME280;29281;50.356;30.894;2023-06-04T00:54:52;100920.33;;;11.02;60.34
43681;BME280;29281;50.356;30.894;2023-06-04T00:55:58;100919.84;;;10.96;60.34
43681;BME280;29281;50.356;30.894;2023-06-04T00:57:04;100911.36;;;10.89;60.44
43681;BME280;29281;50.356;30.894;2023-06-04T00:58:09;100917.22;;;10.80;61.11
43681;BME280;29281;50.356;30.894;2023-06-04T00:59:11;100917.92;;;10.68;62.07
43681;BME280;29281;50.356;30.894;2023-06-04T01:00:16;100916.30;;;10.65;62.41
43681;BME280;29281;50.356;30.894;2023-06-04T01:02:27;100922.97;;;10.41;63.61
43681;BME280;29281;50.356;30.894;2023-06-04T01:03:33;100925.37;;;10.45;63.68
43681;BME280;29281;50.356;30.894;2023-06-04T01:04:42;100919.89;;;10.33;64.38
43681;BME280;29281;50.356;30.894;2023-06-04T01:06:45;100918.78;;;10.21;64.72
43681;BME280;29281;50.356;30.894;2023-06-04T01:06:57;100924.51;;;10.29;64.75
43681;BME280;29281;50.356;30.894;2023-06-04T01:08:04;100916.47;;;10.31;64.82
43681;BME280;29281;50.356;30.894;2023-06-04T01:09:10;100919.03;;;10.32;64.72
43681;BME280;29281;50.356;30.894;2023-06-04T01:10:14;100921.86;;;10.45;64.44
43681;BME280;29281;50.356;30.894;2023-06-04T01:11:17;100926.92;;;10.49;64.29
43681;BME280;29281;50.356;30.894;2023-06-04T01:12:21;100922.39;;;10.51;64.11
43681;BME280;29281;50.356;30.894;2023-06-04T01:13:25;100931.38;;;10.49;64.15
43681;BME280;29281;50.356;30.894;2023-06-04T01:14:29;100925.13;;;10.50;64.67
43681;BME280;29281;50.356;30.894;2023-06-04T01:15:33;100932.73;;;10.56;64.11
43681;BME280;29281;50.356;30.894;2023-06-04T01:16:46;100934.36;;;10.58;64.08
43681;BME280;29281;50.356;30.894;2023-06-04T01:17:48;100930.52;;;10.48;63.66
43681;BME280;29281;50.356;30.894;2023-06-04T01:18:56;100931.20;;;10.36;64.19
43681;BME280;29281;50.356;30.894;2023-06-04T01:20:18;100921.89;;;10.12;65.59
43681;BME280;29281;50.356;30.894;2023-06-04T01:21:29;100925.75;;;10.06;65.95
43681;BME280;29281;50.356;30.894;2023-06-04T01:23:55;100930.56;;;9.82;67.59
43681;BME280;29281;50.356;30.894;2023-06-04T01:25:08;100928.80;;;9.66;68.26
43681;BME280;29281;50.356;30.894;2023-06-04T01:26:13;100923.64;;;9.63;68.50
43681;BME280;29281;50.356;30.894;2023-06-04T01:27:17;100928.35;;;9.58;68.83
43681;BME280;29281;50.356;30.894;2023-06-04T01:28:21;100920.70;;;9.51;69.17
43681;BME280;29281;50.356;30.894;2023-06-04T01:29:25;100925.86;;;9.55;69.08
43681;BME280;29281;50.356;30.894;2023-06-04T01:30:32;100926.79;;;9.53;69.01
43681;BME280;29281;50.356;30.894;2023-06-04T01:31:35;100930.45;;;9.51;69.23
43681;BME280;29281;50.356;30.894;2023-06-04T01:32:40;100925.30;;;9.48;69.39
43681;BME280;29281;50.356;30.894;2023-06-04T01:33:45;100926.16;;;9.48;69.66
43681;BME280;29281;50.356;30.894;2023-06-04T01:34:54;100927.72;;;9.52;69.62
43681;BME280;29281;50.356;30.894;2023-06-04T01:35:54;100930.45;;;9.51;69.44
43681;BME280;29281;50.356;30.894;2023-06-04T01:36:59;100927.57;;;9.56;69.27
43681;BME280;29281;50.356;30.894;2023-06-04T01:38:03;100931.01;;;9.58;68.97
43681;BME280;29281;50.356;30.894;2023-06-04T01:39:07;100925.36;;;9.64;68.94
43681;BME280;29281;50.356;30.894;2023-06-04T01:40:09;100930.20;;;9.73;68.69
43681;BME280;29281;50.356;30.894;2023-06-04T01:41:18;100933.75;;;9.89;69.13
43681;BME280;29281;50.356;30.894;2023-06-04T01:42:24;100935.83;;;10.00;68.91
43681;BME280;29281;50.356;30.894;2023-06-04T01:43:28;100932.66;;;10.09;68.12
43681;BME280;29281;50.356;30.894;2023-06-04T01:44:33;100935.31;;;10.09;67.65
43681;BME280;29281;50.356;30.894;2023-06-04T01:45:36;100927.97;;;10.14;67.49
43681;BME280;29281;50.356;30.894;2023-06-04T01:46:40;100933.93;;;10.19;66.87
43681;BME280;29281;50.356;30.894;2023-06-04T01:47:44;100929.31;;;10.23;67.49
43681;BME280;29281;50.356;30.894;2023-06-04T01:48:49;100934.27;;;10.29;67.21
43681;BME280;29281;50.356;30.894;2023-06-04T01:49:52;100937.28;;;10.23;66.63
43681;BME280;29281;50.356;30.894;2023-06-04T01:50:56;100935.43;;;10.07;66.46
43681;BME280;29281;50.356;30.894;2023-06-04T01:51:59;100929.27;;;10.07;66.65
43681;BME280;29281;50.356;30.894;2023-06-04T01:53:04;100930.34;;;10.20;66.33
43681;BME280;29281;50.356;30.894;2023-06-04T01:54:08;100932.64;;;10.26;66.14
43681;BME280;29281;50.356;30.894;2023-06-04T01:55:13;100924.59;;;10.28;66.86
43681;BME280;29281;50.356;30.894;2023-06-04T01:56:18;100930.59;;;10.31;66.91
43681;BME280;29281;50.356;30.894;2023-06-04T01:57:25;100933.95;;;10.35;66.51
43681;BME280;29281;50.356;30.894;2023-06-04T01:58:28;100932.15;;;10.35;65.84
43681;BME280;29281;50.356;30.894;2023-06-04T01:59:32;100928.54;;;10.20;66.10
43681;BME280;29281;50.356;30.894;2023-06-04T02:00:38;100931.38;;;10.00;67.05
43681;BME280;29281;50.356;30.894;2023-06-04T02:01:43;100931.80;;;9.93;67.27
43681;BME280;29281;50.356;30.894;2023-06-04T02:02:47;100935.47;;;9.90;67.17
43681;BME280;29281;50.356;30.894;2023-06-04T02:03:53;100937.38;;;10.04;67.09
43681;BME280;29281;50.356;30.894;2023-06-04T02:04:56;100940.68;;;10.25;66.06
43681;BME280;29281;50.356;30.894;2023-06-04T02:06:01;100933.95;;;10.35;65.72
43681;BME280;29281;50.356;30.894;2023-06-04T02:07:05;100939.17;;;10.36;65.80
43681;BME280;29281;50.356;30.894;2023-06-04T02:08:10;100937.44;;;10.19;66.50
43681;BME280;29281;50.356;30.894;2023-06-04T02:09:15;100946.75;;;9.94;67.26
43681;BME280;29281;50.356;30.894;2023-06-04T02:10:20;100934.65;;;9.72;68.15
43681;BME280;29281;50.356;30.894;2023-06-04T02:11:24;100947.06;;;9.55;69.60
43681;BME280;29281;50.356;30.894;2023-06-04T02:12:31;100948.38;;;9.63;69.61
43681;BME280;29281;50.356;30.894;2023-06-04T02:13:35;100949.00;;;9.68;69.78
43681;BME280;29281;50.356;30.894;2023-06-04T02:14:39;100942.11;;;9.81;69.48
43681;BME280;29281;50.356;30.894;2023-06-04T02:15:45;100947.88;;;9.90;69.10
43681;BME280;29281;50.356;30.894;2023-06-04T02:16:49;100945.34;;;10.04;68.35
43681;BME280;29281;50.356;30.894;2023-06-04T02:17:56;100946.27;;;10.20;67.43
43681;BME280;29281;50.356;30.894;2023-06-04T02:19:02;100943.47;;;10.39;66.63
43681;BME280;29281;50.356;30.894;2023-06-04T02:20:05;100948.17;;;10.49;67.91
43681;BME280;29281;50.356;30.894;2023-06-04T02:21:13;100942.16;;;10.62;66.70
43681;BME280;29281;50.356;30.894;2023-06-04T02:22:17;100946.09;;;10.70;65.44
43681;BME280;29281;50.356;30.894;2023-06-04T02:23:21;100945.59;;;10.79;65.14
43681;BME280;29281;50.356;30.894;2023-06-04T02:24:25;100946.07;;;10.86;64.42
43681;BME280;29281;50.356;30.894;2023-06-04T02:25:29;100948.84;;;10.84;64.28
43681;BME280;29281;50.356;30.894;2023-06-04T02:26:33;100950.73;;;10.82;63.89
43681;BME280;29281;50.356;30.894;2023-06-04T02:27:37;100952.09;;;10.74;63.82
43681;BME280;29281;50.356;30.894;2023-06-04T02:28:42;100948.09;;;10.67;63.52
43681;BME280;29281;50.356;30.894;2023-06-04T02:29:44;100948.42;;;10.61;63.89
43681;BME280;29281;50.356;30.894;2023-06-04T02:30:48;100952.26;;;10.71;63.31
43681;BME280;29281;50.356;30.894;2023-06-04T02:31:52;100949.27;;;10.77;62.90
43681;BME280;29281;50.356;30.894;2023-06-04T02:32:56;100943.70;;;10.81;62.04
43681;BME280;29281;50.356;30.894;2023-06-04T02:34:00;100951.22;;;10.89;61.65
43681;BME280;29281;50.356;30.894;2023-06-04T02:35:05;100952.73;;;11.09;60.94
43681;BME280;29281;50.356;30.894;2023-06-04T02:36:09;100948.92;;;11.28;60.21
43681;BME280;29281;50.356;30.894;2023-06-04T02:37:12;100944.29;;;11.46;59.64
43681;BME280;29281;50.356;30.894;2023-06-04T02:38:16;100944.88;;;11.51;59.37
43681;BME280;29281;50.356;30.894;2023-06-04T02:39:19;100948.52;;;11.64;59.09
43681;BME280;29281;50.356;30.894;2023-06-04T02:40:24;100948.92;;;11.73;58.88
43681;BME280;29281;50.356;30.894;2023-06-04T02:41:29;100944.45;;;11.73;59.00
43681;BME280;29281;50.356;30.894;2023-06-04T02:42:33;100956.20;;;11.55;60.30
43681;BME280;29281;50.356;30.894;2023-06-04T02:43:36;100959.13;;;11.50;60.63
43681;BME280;29281;50.356;30.894;2023-06-04T02:44:42;100958.70;;;11.72;59.77
43681;BME280;29281;50.356;30.894;2023-06-04T02:45:48;100964.08;;;12.15;57.79
43681;BME280;29281;50.356;30.894;2023-06-04T02:46:53;100961.80;;;12.37;58.02
43681;BME280;29281;50.356;30.894;2023-06-04T02:47:56;100964.81;;;12.45;57.95
43681;BME280;29281;50.356;30.894;2023-06-04T02:49:01;100968.81;;;12.52;56.86
43681;BME280;29281;50.356;30.894;2023-06-04T02:50:04;100963.77;;;12.48;57.20
43681;BME280;29281;50.356;30.894;2023-06-04T02:51:08;100967.02;;;12.24;57.62
43681;BME280;29281;50.356;30.894;2023-06-04T02:52:12;100968.64;;;12.13;58.16
43681;BME280;29281;50.356;30.894;2023-06-04T02:53:18;100968.91;;;12.22;58.45
43681;BME280;29281;50.356;30.894;2023-06-04T02:54:22;100964.84;;;12.31;58.00
43681;BME280;29281;50.356;30.894;2023-06-04T02:55:27;100968.63;;;12.41;58.16
43681;BME280;29281;50.356;30.894;2023-06-04T02:56:34;100971.58;;;12.51;57.38
43681;BME280;29281;50.356;30.894;2023-06-04T02:57:40;100968.93;;;12.37;58.18
43681;BME280;29281;50.356;30.894;2023-06-04T02:58:52;100972.16;;;12.27;58.15
43681;BME280;29281;50.356;30.894;2023-06-04T02:59:56;100973.64;;;12.60;57.48
43681;BME280;29281;50.356;30.894;2023-06-04T03:01:00;100972.00;;;13.65;54.41
43681;BME280;29281;50.356;30.894;2023-06-04T03:02:03;100974.06;;;14.74;51.38
43681;BME280;29281;50.356;30.894;2023-06-04T03:03:07;100976.33;;;15.63;48.47
43681;BME280;29281;50.356;30.894;2023-06-04T03:04:14;100978.67;;;15.78;47.88
43681;BME280;29281;50.356;30.894;2023-06-04T03:05:18;100982.77;;;15.60;48.04
43681;BME280;29281;50.356;30.894;2023-06-04T03:06:26;100967.55;;;15.61;47.78
43681;BME280;29281;50.356;30.894;2023-06-04T03:07:30;100984.27;;;15.40;47.87
43681;BME280;29281;50.356;30.894;2023-06-04T03:08:34;100978.73;;;15.31;48.29
43681;BME280;29281;50.356;30.894;2023-06-04T03:09:41;100989.84;;;15.13;48.45
43681;BME280;29281;50.356;30.894;2023-06-04T03:10:46;100996.80;;;14.92;49.14
43681;BME280;29281;50.356;30.894;2023-06-04T03:11:52;100990.31;;;15.07;48.54
43681;BME280;29281;50.356;30.894;2023-06-04T03:12:57;100998.34;;;15.07;48.15
43681;BME280;29281;50.356;30.894;2023-06-04T03:14:00;100998.51;;;14.93;48.36
43681;BME280;29281;50.356;30.894;2023-06-04T03:15:04;101000.16;;;14.70;48.90
43681;BME280;29281;50.356;30.894;2023-06-04T03:16:07;101004.70;;;14.32;50.36
43681;BME280;29281;50.356;30.894;2023-06-04T03:17:13;101002.57;;;14.12;51.83
43681;BME280;29281;50.356;30.894;2023-06-04T03:18:19;101001.28;;;13.92;52.86
43681;BME280;29281;50.356;30.894;2023-06-04T03:19:23;101000.97;;;13.84;52.77
43681;BME280;29281;50.356;30.894;2023-06-04T03:20:26;101008.33;;;13.80;52.81
43681;BME280;29281;50.356;30.894;2023-06-04T03:21:29;101001.71;;;13.73;53.24
43681;BME280;29281;50.356;30.894;2023-06-04T03:22:33;101003.37;;;13.61;53.97
43681;BME280;29281;50.356;30.894;2023-06-04T03:23:39;100999.17;;;13.45;54.88
43681;BME280;29281;50.356;30.894;2023-06-04T03:24:43;100996.44;;;13.19;55.90
43681;BME280;29281;50.356;30.894;2023-06-04T03:25:51;101002.94;;;13.01;56.39
43681;BME280;29281;50.356;30.894;2023-06-04T03:26:56;101008.50;;;12.84;57.62
43681;BME280;29281;50.356;30.894;2023-06-04T03:28:02;101001.88;;;12.77;57.59
43681;BME280;29281;50.356;30.894;2023-06-04T03:29:07;101009.84;;;12.91;57.45
43681;BME280;29281;50.356;30.894;2023-06-04T03:30:11;101006.69;;;12.98;56.89
43681;BME280;29281;50.356;30.894;2023-06-04T03:31:20;101001.41;;;13.11;56.43
43681;BME280;29281;50.356;30.894;2023-06-04T03:32:24;100998.91;;;13.22;56.44
43681;BME280;29281;50.356;30.894;2023-06-04T03:33:30;100998.19;;;13.33;56.24
43681;BME280;29281;50.356;30.894;2023-06-04T03:34:33;101002.83;;;13.44;55.99
43681;BME280;29281;50.356;30.894;2023-06-04T03:35:39;101003.69;;;13.44;55.62
43681;BME280;29281;50.356;30.894;2023-06-04T03:36:43;101004.73;;;13.42;56.35
43681;BME280;29281;50.356;30.894;2023-06-04T03:37:46;101003.88;;;13.41;55.99
43681;BME280;29281;50.356;30.894;2023-06-04T03:38:50;101007.01;;;13.21;56.65
43681;BME280;29281;50.356;30.894;2023-06-04T03:39:53;100998.71;;;13.25;56.82
43681;BME280;29281;50.356;30.894;2023-06-04T03:40:57;100995.68;;;13.17;57.40
43681;BME280;29281;50.356;30.894;2023-06-04T03:41:59;100997.00;;;13.24;57.64
43681;BME280;29281;50.356;30.894;2023-06-04T03:43:03;101000.20;;;13.29;57.83
43681;BME280;29281;50.356;30.894;2023-06-04T03:44:14;100995.88;;;13.41;58.23
43681;BME280;29281;50.356;30.894;2023-06-04T03:45:20;100998.97;;;13.48;57.73
43681;BME280;29281;50.356;30.894;2023-06-04T03:46:24;100999.17;;;13.45;57.85
43681;BME280;29281;50.356;30.894;2023-06-04T03:47:33;100993.11;;;13.43;57.86
43681;BME280;29281;50.356;30.894;2023-06-04T03:48:37;101000.03;;;13.45;57.37
43681;BME280;29281;50.356;30.894;2023-06-04T03:49:41;100994.09;;;13.54;57.35
43681;BME280;29281;50.356;30.894;2023-06-04T03:50:46;100993.91;;;13.70;56.79
43681;BME280;29281;50.356;30.894;2023-06-04T03:51:51;100995.82;;;13.68;56.99
43681;BME280;29281;50.356;30.894;2023-06-04T03:52:55;100986.55;;;13.86;56.61
43681;BME280;29281;50.356;30.894;2023-06-04T03:54:00;100994.13;;;13.92;56.04
43681;BME280;29281;50.356;30.894;2023-06-04T03:55:06;100990.19;;;13.98;56.45
43681;BME280;29281;50.356;30.894;2023-06-04T03:56:11;100995.73;;;13.95;55.85
43681;BME280;29281;50.356;30.894;2023-06-04T03:57:14;100996.37;;;13.98;55.64
43681;BME280;29281;50.356;30.894;2023-06-04T03:58:18;101002.37;;;14.02;55.33
43681;BME280;29281;50.356;30.894;2023-06-04T03:59:24;100993.60;;;14.13;54.97
43681;BME280;29281;50.356;30.894;2023-06-04T04:00:28;100999.03;;;14.24;54.46
43681;BME280;29281;50.356;30.894;2023-06-04T04:01:32;100999.24;;;14.21;54.60
43681;BME280;29281;50.356;30.894;2023-06-04T04:02:37;100996.57;;;14.21;54.34
43681;BME280;29281;50.356;30.894;2023-06-04T04:03:42;101002.77;;;14.21;54.03
43681;BME280;29281;50.356;30.894;2023-06-04T04:04:46;100995.85;;;14.19;54.86
43681;BME280;29281;50.356;30.894;2023-06-04T04:05:50;101002.45;;;14.26;53.78
43681;BME280;29281;50.356;30.894;2023-06-04T04:06:54;101001.38;;;14.54;50.74
43681;BME280;29281;50.356;30.894;2023-06-04T04:07:57;100995.53;;;15.33;48.33
43681;BME280;29281;50.356;30.894;2023-06-04T04:09:04;100999.53;;;15.86;47.93
43681;BME280;29281;50.356;30.894;2023-06-04T04:10:08;101008.65;;;15.83;47.14
43681;BME280;29281;50.356;30.894;2023-06-04T04:11:18;101015.52;;;15.64;45.50
43681;BME280;29281;50.356;30.894;2023-06-04T04:12:20;101016.77;;;15.47;44.66
43681;BME280;29281;50.356;30.894;2023-06-04T04:13:24;101019.55;;;15.45;44.89
43681;BME280;29281;50.356;30.894;2023-06-04T04:14:27;101019.06;;;15.40;44.80
43681;BME280;29281;50.356;30.894;2023-06-04T04:15:32;101018.80;;;15.43;44.79
43681;BME280;29281;50.356;30.894;2023-06-04T04:16:40;101021.37;;;15.45;44.96
43681;BME280;29281;50.356;30.894;2023-06-04T04:17:46;101022.81;;;15.38;45.11
43681;BME280;29281;50.356;30.894;2023-06-04T04:18:49;101034.77;;;15.21;44.93
43681;BME280;29281;50.356;30.894;2023-06-04T04:19:53;101031.13;;;15.22;45.25
43681;BME280;29281;50.356;30.894;2023-06-04T04:20:57;101026.00;;;15.19;45.16
43681;BME280;29281;50.356;30.894;2023-06-04T04:22:02;101027.94;;;15.17;45.20
43681;BME280;29281;50.356;30.894;2023-06-04T04:23:04;101025.14;;;15.19;44.57
43681;BME280;29281;50.356;30.894;2023-06-04T04:24:10;101030.50;;;15.19;45.26
43681;BME280;29281;50.356;30.894;2023-06-04T04:25:16;101023.73;;;15.26;45.13
43681;BME280;29281;50.356;30.894;2023-06-04T04:26:23;101029.14;;;15.37;45.36
43681;BME280;29281;50.356;30.894;2023-06-04T04:27:29;101032.48;;;15.52;45.34
43681;BME280;29281;50.356;30.894;2023-06-04T04:28:35;101026.25;;;15.75;45.14
43681;BME280;29281;50.356;30.894;2023-06-04T04:29:42;101028.59;;;15.79;44.94
43681;BME280;29281;50.356;30.894;2023-06-04T04:30:49;101021.20;;;15.94;44.90
43681;BME280;29281;50.356;30.894;2023-06-04T04:31:53;101032.12;;;16.48;43.76
43681;BME280;29281;50.356;30.894;2023-06-04T04:33:02;101020.13;;;18.65;39.42
43681;BME280;29281;50.356;30.894;2023-06-04T04:34:07;101028.74;;;21.61;34.98
43681;BME280;29281;50.356;30.894;2023-06-04T04:35:13;101029.81;;;23.72;32.00
43681;BME280;29281;50.356;30.894;2023-06-04T04:36:19;101052.59;;;25.45;29.19
43681;BME280;29281;50.356;30.894;2023-06-04T04:37:25;101066.72;;;26.91;27.42
43681;BME280;29281;50.356;30.894;2023-06-04T04:38:31;101078.18;;;27.88;25.75
43681;BME280;29281;50.356;30.894;2023-06-04T04:39:38;101082.44;;;28.18;24.83
43681;BME280;29281;50.356;30.894;2023-06-04T04:40:43;101090.61;;;28.67;24.39
43681;BME280;29281;50.356;30.894;2023-06-04T04:41:48;101094.27;;;29.16;23.91
43681;BME280;29281;50.356;30.894;2023-06-04T04:42:52;101109.83;;;29.69;23.35
43681;BME280;29281;50.356;30.894;2023-06-04T04:43:55;101112.77;;;29.68;23.57
43681;BME280;29281;50.356;30.894;2023-06-04T04:45:02;101116.65;;;30.00;23.04
43681;BME280;29281;50.356;30.894;2023-06-04T04:46:06;101126.36;;;30.16;22.84
43681;BME280;29281;50.356;30.894;2023-06-04T04:47:15;101116.66;;;30.26;22.22
43681;BME280;29281;50.356;30.894;2023-06-04T04:48:23;101125.31;;;30.63;21.72
43681;BME280;29281;50.356;30.894;2023-06-04T04:49:27;101130.38;;;30.66;21.40
43681;BME280;29281;50.356;30.894;2023-06-04T04:50:31;101137.00;;;31.29;21.08
43681;BME280;29281;50.356;30.894;2023-06-04T04:51:35;101132.94;;;31.38;21.12
43681;BME280;29281;50.356;30.894;2023-06-04T04:52:38;101132.20;;;31.11;21.14
43681;BME280;29281;50.356;30.894;2023-06-04T04:53:48;101135.86;;;30.66;21.00
43681;BME280;29281;50.356;30.894;2023-06-04T04:54:49;101136.47;;;30.28;21.34
43681;BME280;29281;50.356;30.894;2023-06-04T04:55:53;101143.64;;;30.29;20.74
43681;BME280;29281;50.356;30.894;2023-06-04T04:57:00;101135.22;;;30.57;20.74
43681;BME280;29281;50.356;30.894;2023-06-04T04:58:07;101130.89;;;31.21;20.38
43681;BME280;29281;50.356;30.894;2023-06-04T04:59:11;101140.04;;;31.53;19.74
43681;BME280;29281;50.356;30.894;2023-06-04T05:00:16;101144.05;;;31.57;19.71
43681;BME280;29281;50.356;30.894;2023-06-04T05:01:20;101148.41;;;31.20;19.94
43681;BME280;29281;50.356;30.894;2023-06-04T05:02:29;101152.71;;;31.54;19.77
43681;BME280;29281;50.356;30.894;2023-06-04T05:03:33;101152.63;;;31.22;19.92
43681;BME280;29281;50.356;30.894;2023-06-04T05:04:39;101157.16;;;30.64;20.08
43681;BME280;29281;50.356;30.894;2023-06-04T05:05:41;101154.38;;;30.90;20.15
43681;BME280;29281;50.356;30.894;2023-06-04T05:06:47;101154.63;;;30.62;19.58
43681;BME280;29281;50.356;30.894;2023-06-04T05:07:51;101161.97;;;32.04;19.22
43681;BME280;29281;50.356;30.894;2023-06-04T05:08:56;101170.13;;;31.79;18.41
43681;BME280;29281;50.356;30.894;2023-06-04T05:09:59;101163.85;;;31.72;18.69
43681;BME280;29281;50.356;30.894;2023-06-04T05:11:05;101167.62;;;31.20;18.82
43681;BME280;29281;50.356;30.894;2023-06-04T05:12:08;101152.92;;;30.74;19.80
43681;BME280;29281;50.356;30.894;2023-06-04T05:13:12;101165.89;;;31.83;19.58
43681;BME280;29281;50.356;30.894;2023-06-04T05:14:17;101164.17;;;31.89;18.94
43681;BME280;29281;50.356;30.894;2023-06-04T05:15:20;101178.47;;;32.35;17.91
43681;BME280;29281;50.356;30.894;2023-06-04T05:16:28;101173.17;;;32.02;18.62
43681;BME280;29281;50.356;30.894;2023-06-04T05:17:33;101176.45;;;32.49;17.69
43681;BME280;29281;50.356;30.894;2023-06-04T05:18:38;101179.72;;;33.07;17.25
43681;BME280;29281;50.356;30.894;2023-06-04T05:19:46;101187.39;;;33.60;16.59
43681;BME280;29281;50.356;30.894;2023-06-04T05:20:49;101193.79;;;33.91;16.20
43681;BME280;29281;50.356;30.894;2023-06-04T05:21:53;101192.05;;;34.61;16.20
43681;BME280;29281;50.356;30.894;2023-06-04T05:22:58;101192.05;;;34.61;16.18
43681;BME280;29281;50.356;30.894;2023-06-04T05:24:05;101192.16;;;34.54;16.11
43681;BME280;29281;50.356;30.894;2023-06-04T05:25:13;101198.28;;;34.56;16.08
43681;BME280;29281;50.356;30.894;2023-06-04T05:26:17;101200.68;;;33.81;16.24
43681;BME280;29281;50.356;30.894;2023-06-04T05:27:21;101196.47;;;33.79;16.20
43681;BME280;29281;50.356;30.894;2023-06-04T05:28:30;101192.06;;;33.60;16.37
43681;BME280;29281;50.356;30.894;2023-06-04T05:29:35;101184.55;;;33.48;16.80
43681;BME280;29281;50.356;30.894;2023-06-04T05:30:43;101194.32;;;33.63;16.48
43681;BME280;29281;50.356;30.894;2023-06-04T05:31:47;101197.00;;;33.87;16.23
43681;BME280;29281;50.356;30.894;2023-06-04T05:32:53;101192.05;;;34.73;16.00
43681;BME280;29281;50.356;30.894;2023-06-04T05:33:59;101192.06;;;35.19;15.62
43681;BME280;29281;50.356;30.894;2023-06-04T05:35:08;101194.22;;;35.41;15.62
43681;BME280;29281;50.356;30.894;2023-06-04T05:36:13;101199.39;;;36.06;15.25
43681;BME280;29281;50.356;30.894;2023-06-04T05:37:19;101200.48;;;35.76;14.97
43681;BME280;29281;50.356;30.894;2023-06-04T05:38:23;101209.84;;;35.35;15.04